Time;durP1;ratioP1;P1;durP2;ratioP2;P2;SDS_P1;SDS_P2;PMS_P1;PMS_P2;Temp;Humidity;BMP_temperature;BMP_pressure;BME280_temperature;BME280_humidity;BME280_pressure;Samples;Min_cycle;Max_cycle;Signal;HPM_P1;HPM_P2
2021/04/27 00:00:23;;;;;;;4.38;2.47;;;;;;;7.15;36.36;98333.78;3530794;40;20031;-63
2021/04/27 00:02:51;;;;;;;2.17;1.92;;;;;;;7.12;36.67;98328.88;3539884;40;20058;-62
2021/04/27 00:05:18;;;;;;;3.25;2.42;;;;;;;7.08;36.69;98324.97;3540527;40;20068;-64
2021/04/27 00:07:47;;;;;;;3.40;2.53;;;;;;;7.03;36.85;98320.25;3541198;40;20401;-62
2021/04/27 00:10:17;;;;;;;3.67;2.53;;;;;;;7.02;37.01;98320.44;3542006;40;20046;-62
2021/04/27 00:12:45;;;;;;;4.13;2.60;;;;;;;7.02;36.91;98320.44;3540634;40;20050;-62
2021/04/27 00:15:15;;;;;;;2.70;2.38;;;;;;;7.00;36.96;98318.00;3540167;40;20031;-62
2021/04/27 00:17:41;;;;;;;5.72;2.58;;;;;;;6.91;37.17;98314.66;3539617;40;20061;-62
2021/04/27 00:20:11;;;;;;;3.78;2.53;;;;;;;6.97;37.20;98315.72;3540244;40;20050;-62
2021/04/27 00:22:38;;;;;;;3.35;2.50;;;;;;;6.93;37.36;98314.44;3540768;40;20073;-62
2021/04/27 00:25:07;;;;;;;5.57;2.08;;;;;;;6.89;37.70;98307.94;3531825;40;20062;-62
2021/04/27 00:27:35;;;;;;;5.03;2.55;;;;;;;6.82;37.63;98310.47;3530957;40;20030;-62
2021/04/27 00:30:02;;;;;;;4.47;2.92;;;;;;;6.84;37.69;98307.66;3531340;40;20097;-62
2021/04/27 00:32:29;;;;;;;5.13;2.63;;;;;;;6.84;37.73;98308.47;3540316;40;20094;-62
2021/04/27 00:34:56;;;;;;;2.55;2.22;;;;;;;6.79;37.89;98310.03;3540530;40;20570;-62
2021/04/27 00:37:23;;;;;;;4.18;3.10;;;;;;;6.77;37.85;98296.22;3530122;40;20109;-62
2021/04/27 00:39:50;;;;;;;7.28;2.78;;;;;;;6.72;37.88;98296.78;3539121;40;20061;-62
2021/04/27 00:42:17;;;;;;;5.30;3.13;;;;;;;6.64;38.06;98305.56;3539151;40;20046;-62
2021/04/27 00:44:44;;;;;;;6.63;3.30;;;;;;;6.60;38.12;98301.66;3539062;40;20145;-62
2021/04/27 00:47:11;;;;;;;4.85;2.70;;;;;;;6.61;38.23;98305.09;3538923;40;20329;-62
2021/04/27 00:49:38;;;;;;;5.13;3.08;;;;;;;6.56;37.96;98305.63;3539319;40;20078;-62
2021/04/27 00:52:05;;;;;;;6.93;3.10;;;;;;;6.51;38.27;98302.75;3538998;40;20034;-62
2021/04/27 00:54:33;;;;;;;5.68;2.97;;;;;;;6.47;38.44;98298.84;3539138;40;20129;-63
2021/04/27 00:57:00;;;;;;;4.85;3.40;;;;;;;6.41;38.43;98303.00;3539262;40;20071;-62
2021/04/27 00:59:26;;;;;;;3.92;2.90;;;;;;;6.37;38.60;98299.09;3540829;40;20061;-61
2021/04/27 01:01:54;;;;;;;7.13;2.80;;;;;;;6.33;38.74;98289.94;3544382;40;20305;-64
2021/04/27 01:04:21;;;;;;;4.55;2.78;;;;;;;6.32;38.50;98290.91;3535357;40;20035;-62
2021/04/27 01:06:49;;;;;;;3.17;2.72;;;;;;;6.30;38.71;98287.66;3529867;40;20304;-62
2021/04/27 01:09:22;;;;;;;7.82;3.05;;;;;;;6.26;38.70;98290.84;3537915;40;20051;-62
2021/04/27 01:11:58;;;;;;;5.03;3.53;;;;;;;6.22;38.86;98293.00;3529813;40;20050;-62
2021/04/27 01:14:30;;;;;;;7.25;2.88;;;;;;;6.16;38.99;98280.56;3529770;40;20055;-62
2021/04/27 01:17:04;;;;;;;4.88;3.05;;;;;;;6.14;38.92;98283.38;3529511;40;20129;-62
2021/04/27 01:20:09;;;;;;;4.60;2.90;;;;;;;6.09;38.90;98284.91;3538795;40;20050;-62
2021/04/27 01:23:03;;;;;;;5.10;3.00;;;;;;;6.02;39.10;98290.03;3529817;40;20053;-62
2021/04/27 01:25:35;;;;;;;5.45;2.85;;;;;;;6.07;39.09;98292.13;3529599;40;20401;-63
2021/04/27 01:28:06;;;;;;;5.90;3.35;;;;;;;6.09;39.17;98284.91;3529400;40;20380;-62
2021/04/27 01:30:38;;;;;;;5.25;2.78;;;;;;;6.14;39.11;98279.94;3538863;40;20046;-62
2021/04/27 01:33:08;;;;;;;8.52;3.38;;;;;;;6.18;38.96;98284.66;3530193;40;20064;-62
2021/04/27 01:35:36;;;;;;;5.85;3.28;;;;;;;6.15;39.08;98279.75;3539173;40;20062;-62
2021/04/27 01:38:06;;;;;;;4.15;2.58;;;;;;;6.19;39.02;98277.59;3529800;40;20047;-62
2021/04/27 01:40:33;;;;;;;4.20;2.80;;;;;;;6.14;39.20;98278.13;3538717;40;20050;-62
2021/04/27 01:43:02;;;;;;;6.95;3.10;;;;;;;6.15;39.20;98268.44;3529879;40;20031;-62
2021/04/27 01:45:31;;;;;;;5.18;2.80;;;;;;;6.13;39.17;98273.88;3538950;40;20073;-62
2021/04/27 01:47:59;;;;;;;4.07;2.53;;;;;;;6.07;39.28;98271.13;3530702;40;20058;-63
2021/04/27 01:50:26;;;;;;;4.35;2.55;;;;;;;6.04;39.32;98272.31;3539965;40;20058;-62
2021/04/27 01:53:13;;;;;;;4.80;3.13;;;;;;;6.02;39.30;98269.03;3540249;40;20133;-62
2021/04/27 01:55:42;;;;;;;4.72;2.70;;;;;;;6.00;39.56;98270.19;3540190;40;20050;-62
2021/04/27 01:58:10;;;;;;;3.53;2.80;;;;;;;6.00;39.42;98259.69;3540369;40;20066;-62
2021/04/27 02:00:38;;;;;;;3.95;3.00;;;;;;;5.91;39.50;98259.72;3539424;40;20138;-62
2021/04/27 02:03:05;;;;;;;3.63;2.70;;;;;;;5.80;39.83;98269.84;3539383;40;20061;-62
2021/04/27 02:06:08;;;;;;;6.80;2.97;;;;;;;5.82;39.93;98259.97;3540178;40;20039;-62
2021/04/27 02:08:37;;;;;;;4.70;2.78;;;;;;;5.85;39.88;98260.44;3530470;40;20488;-62
2021/04/27 02:11:05;;;;;;;4.35;2.55;;;;;;;5.84;39.95;98258.81;3531817;40;20274;-62
2021/04/27 02:13:34;;;;;;;4.60;2.50;;;;;;;5.78;40.19;98259.50;3531670;40;20034;-62
2021/04/27 02:16:05;;;;;;;5.68;2.45;;;;;;;5.76;40.49;98258.06;3540969;40;20384;-62
2021/04/27 02:18:36;;;;;;;3.72;2.50;;;;;;;5.80;40.51;98257.53;3540188;40;20057;-62
2021/04/27 02:21:10;;;;;;;3.95;2.83;;;;;;;5.85;40.45;98265.69;3531156;40;20050;-62
2021/04/27 02:23:56;;;;;;;3.75;2.55;;;;;;;5.90;40.68;98260.72;3540141;40;20061;-62
2021/04/27 02:26:29;;;;;;;8.02;3.08;;;;;;;5.91;40.50;98258.91;3531117;40;20046;-63
2021/04/27 02:29:01;;;;;;;2.75;2.40;;;;;;;5.89;40.56;98266.16;3531246;40;20038;-62
2021/04/27 02:31:32;;;;;;;4.40;2.60;;;;;;;5.89;40.52;98266.16;3531775;40;20062;-62
2021/04/27 02:34:00;;;;;;;3.42;2.80;;;;;;;5.90;40.46;98265.16;3539510;40;20043;-62
2021/04/27 02:36:28;;;;;;;3.22;2.75;;;;;;;5.87;40.71;98265.50;3531061;40;20035;-64
2021/04/27 02:39:08;;;;;;;4.05;2.95;;;;;;;5.81;40.51;98264.41;3539664;40;20090;-62
2021/04/27 02:41:37;;;;;;;3.25;2.63;;;;;;;5.73;40.84;98264.47;3539147;40;20035;-63
2021/04/27 02:44:14;;;;;;;3.25;2.17;;;;;;;5.71;41.03;98269.06;3534199;40;20313;-63
2021/04/27 02:46:45;;;;;;;3.03;2.72;;;;;;;5.76;40.94;98266.75;3534229;40;20393;-63
2021/04/27 02:49:14;;;;;;;3.90;2.58;;;;;;;5.72;40.93;98265.47;3534087;40;20332;-63
2021/04/27 02:51:49;;;;;;;3.65;3.13;;;;;;;5.64;41.01;98268.16;3534786;40;20138;-63
2021/04/27 02:54:16;;;;;;;4.57;2.90;;;;;;;5.58;41.26;98267.03;3535287;40;20051;-63
2021/04/27 02:56:44;;;;;;;5.35;2.75;;;;;;;5.58;41.73;98264.41;3543400;40;20042;-63
2021/04/27 02:59:15;;;;;;;3.53;2.65;;;;;;;5.57;41.56;98256.72;3533345;40;20050;-63
2021/04/27 03:01:43;;;;;;;3.95;2.55;;;;;;;5.60;41.74;98251.94;3534896;40;20054;-63
2021/04/27 03:04:15;;;;;;;4.75;2.83;;;;;;;5.62;41.60;98254.38;3535844;40;20074;-62
2021/04/27 03:07:17;;;;;;;4.68;2.53;;;;;;;5.60;41.56;98256.38;3537463;40;20055;-62
2021/04/27 03:09:48;;;;;;;7.38;3.15;;;;;;;5.62;41.54;98259.63;3535800;40;20058;-62
2021/04/27 03:12:15;;;;;;;8.63;2.70;;;;;;;5.63;41.54;98256.00;3543866;40;20027;-63
2021/04/27 03:14:42;;;;;;;4.45;2.75;;;;;;;5.58;41.49;98256.53;3543168;40;20092;-64
2021/04/27 03:17:12;;;;;;;9.35;2.90;;;;;;;5.53;41.62;98253.63;3532787;40;20039;-62
2021/04/27 03:19:48;;;;;;;4.97;2.60;;;;;;;5.50;41.60;98243.47;3533417;40;20043;-62
2021/04/27 03:22:21;;;;;;;3.38;2.65;;;;;;;5.54;41.76;98247.38;3534095;40;20035;-62
2021/04/27 03:24:49;;;;;;;3.65;2.70;;;;;;;5.62;41.80;98252.56;3532626;40;20030;-62
2021/04/27 03:27:17;;;;;;;4.60;2.70;;;;;;;5.61;41.52;98256.19;3531129;40;20051;-62
2021/04/27 03:30:01;;;;;;;6.28;3.20;;;;;;;5.56;41.41;98250.66;3531417;40;20421;-64
2021/04/27 03:32:30;;;;;;;9.30;4.13;;;;;;;5.54;41.48;98249.19;3532134;40;20054;-63
2021/04/27 03:34:57;;;;;;;7.75;4.22;;;;;;;5.53;41.49;98255.44;3534171;40;20063;-63
2021/04/27 03:37:24;;;;;;;9.13;3.83;;;;;;;5.52;41.38;98251.19;3534450;40;20293;-62
2021/04/27 03:39:51;;;;;;;5.57;3.15;;;;;;;5.47;41.64;98254.34;3534177;40;20087;-62
2021/04/27 03:42:18;;;;;;;7.80;2.70;;;;;;;5.41;41.71;98242.72;3542117;40;20054;-62
2021/04/27 03:44:48;;;;;;;7.47;2.40;;;;;;;5.31;41.86;98252.63;3530681;40;20031;-62
2021/04/27 03:47:17;;;;;;;22.70;12.90;;;;;;;5.29;42.07;98253.78;3530449;40;20057;-63
2021/04/27 03:49:45;;;;;;;8.95;3.10;;;;;;;5.35;42.15;98246.03;3530679;40;20085;-62
2021/04/27 03:52:12;;;;;;;3.92;2.67;;;;;;;5.38;42.21;98237.00;3539840;40;20026;-63
2021/04/27 03:54:39;;;;;;;3.42;2.65;;;;;;;5.32;42.04;98242.94;3530319;40;20054;-62
2021/04/27 03:57:06;;;;;;;4.28;2.80;;;;;;;5.31;42.21;98255.25;3539842;40;20039;-62
2021/04/27 03:59:43;;;;;;;5.05;2.28;;;;;;;5.34;42.07;98252.25;3530285;40;20113;-63
2021/04/27 04:02:10;;;;;;;3.38;2.40;;;;;;;5.29;42.33;98248.53;3539891;40;20357;-63
2021/04/27 04:04:38;;;;;;;5.10;2.80;;;;;;;5.27;42.44;98245.28;3530412;40;20034;-62
2021/04/27 04:07:16;;;;;;;4.32;2.97;;;;;;;5.27;42.33;98250.53;3539468;40;20133;-63
2021/04/27 04:10:08;;;;;;;4.20;2.60;;;;;;;5.20;42.28;98243.31;3539595;40;20458;-62
2021/04/27 04:12:36;;;;;;;3.35;2.75;;;;;;;5.19;42.41;98238.28;3538759;40;20108;-63
2021/04/27 04:15:05;;;;;;;5.00;2.50;;;;;;;5.13;42.54;98231.91;3539268;40;20046;-62
2021/04/27 04:17:33;;;;;;;6.20;2.85;;;;;;;4.96;42.60;98238.22;3530149;40;20039;-63
2021/04/27 04:20:01;;;;;;;3.38;2.78;;;;;;;4.86;43.12;98242.84;3530280;40;20059;-62
2021/04/27 04:22:36;;;;;;;4.38;3.10;;;;;;;4.83;43.43;98251.03;3530476;40;20038;-63
2021/04/27 04:25:09;;;;;;;6.32;3.63;;;;;;;4.85;43.52;98241.19;3530063;40;20137;-63
2021/04/27 04:27:37;;;;;;;5.68;2.80;;;;;;;4.84;43.47;98250.84;3529952;40;20050;-63
2021/04/27 04:30:09;;;;;;;4.82;2.40;;;;;;;4.79;43.51;98252.34;3530695;40;20400;-62
2021/04/27 04:32:38;;;;;;;13.27;4.40;;;;;;;4.80;43.67;98244.31;3539730;40;20047;-62
2021/04/27 04:35:40;;;;;;;7.45;4.38;;;;;;;4.84;43.69;98253.47;3539359;40;20144;-62
2021/04/27 04:38:25;;;;;;;;;;;;;;;4.97;43.68;98250.31;3540097;40;20045;-62
2021/04/27 04:41:11;;;;;;;4.00;3.42;;;;;;;5.08;43.61;98251.75;3539492;40;19991;-62
2021/04/27 04:43:56;;;;;;;9.13;3.40;;;;;;;5.18;43.45;98255.81;3539125;40;20129;-63
2021/04/27 04:46:42;;;;;;;7.63;3.17;;;;;;;5.22;43.23;98251.00;3539463;40;20388;-62
2021/04/27 04:49:28;;;;;;;8.45;4.97;;;;;;;5.22;43.24;98259.72;3539358;40;20062;-63
2021/04/27 04:52:34;;;;;;;6.10;3.20;;;;;;;5.35;43.26;98243.41;3539059;40;20053;-62
2021/04/27 04:55:15;;;;;;;7.25;3.25;;;;;;;5.41;42.96;98237.47;3539237;40;20055;-62
2021/04/27 04:58:00;;;;;;;5.30;3.83;;;;;;;5.40;43.03;98253.38;3539095;40;20053;-62
2021/04/27 05:00:43;;;;;;;4.55;3.38;;;;;;;5.45;42.93;98251.06;3529942;40;20050;-62
2021/04/27 05:03:42;;;;;;;6.82;3.13;;;;;;;5.52;42.83;98248.56;3529982;40;20069;-63
2021/04/27 05:06:29;;;;;;;5.07;3.65;;;;;;;5.52;42.53;98257.25;3539271;40;20105;-63
2021/04/27 05:09:15;;;;;;;4.57;2.85;;;;;;;5.57;42.52;98251.47;3539322;40;20133;-62
2021/04/27 05:11:46;;;;;;;7.90;4.55;;;;;;;5.62;42.57;98251.75;3539051;40;20058;-63
2021/04/27 05:14:31;;;;;;;4.47;3.38;;;;;;;5.70;42.34;98255.13;3539276;40;20053;-62
2021/04/27 05:16:59;;;;;;;5.25;3.50;;;;;;;5.70;42.51;98257.75;3538802;40;20047;-64
2021/04/27 05:19:27;;;;;;;7.60;3.58;;;;;;;5.77;42.39;98257.88;3539047;40;20061;-63
2021/04/27 05:21:54;;;;;;;5.10;3.55;;;;;;;5.82;42.19;98259.97;3530331;40;20435;-62
2021/04/27 05:24:21;;;;;;;5.25;3.90;;;;;;;5.86;42.29;98256.03;3531836;40;20054;-63
2021/04/27 05:26:50;;;;;;;5.55;3.30;;;;;;;5.85;42.02;98255.22;3533130;40;20078;-70
2021/04/27 05:29:18;;;;;;;4.53;3.38;;;;;;;5.88;42.10;98252.25;3535359;40;20050;-63
2021/04/27 05:31:46;;;;;;;7.10;3.47;;;;;;;5.92;42.25;98260.59;3546228;40;20124;-61
2021/04/27 05:34:12;;;;;;;8.55;3.35;;;;;;;6.03;42.02;98257.53;3545996;40;20078;-63
2021/04/27 05:36:44;;;;;;;7.63;3.95;;;;;;;6.22;41.63;98255.44;3532978;40;20066;-61
2021/04/27 05:39:12;;;;;;;6.70;3.38;;;;;;;6.26;41.52;98247.03;3531309;40;20058;-62
2021/04/27 05:41:40;;;;;;;10.82;3.42;;;;;;;6.24;41.40;98248.19;3531294;40;20094;-64
2021/04/27 05:44:07;;;;;;;10.68;3.35;;;;;;;6.15;41.44;98242.19;3540172;40;20047;-62
2021/04/27 05:46:37;;;;;;;7.47;3.38;;;;;;;6.25;41.62;98249.84;3531286;40;20043;-62
2021/04/27 05:49:04;;;;;;;8.38;3.15;;;;;;;6.32;41.30;98246.28;3544751;40;20062;-62
2021/04/27 05:51:32;;;;;;;10.32;6.22;;;;;;;6.48;41.06;98250.56;3546425;40;20044;-62
2021/04/27 05:53:58;;;;;;;6.28;3.60;;;;;;;6.50;40.95;98258.28;3544864;40;20057;-62
2021/04/27 05:56:25;;;;;;;9.38;5.13;;;;;;;6.59;40.97;98247.50;3545663;40;20038;-61
2021/04/27 05:58:52;;;;;;;6.43;4.38;;;;;;;6.73;40.83;98248.50;3547258;40;20053;-63
2021/04/27 06:01:21;;;;;;;5.28;3.30;;;;;;;6.83;40.42;98250.88;3547556;40;20027;-62
2021/04/27 06:03:48;;;;;;;6.00;3.45;;;;;;;6.86;40.51;98253.94;3546074;40;20050;-65
2021/04/27 06:06:15;;;;;;;7.55;3.80;;;;;;;6.87;40.19;98254.75;3546513;40;20079;-61
2021/04/27 06:08:42;;;;;;;3.83;3.03;;;;;;;6.89;40.22;98253.56;3545352;40;20031;-62
2021/04/27 06:11:09;;;;;;;5.35;3.15;;;;;;;6.89;39.94;98258.81;3533577;40;20049;-63
2021/04/27 06:13:35;;;;;;;6.28;2.67;;;;;;;6.85;39.71;98252.28;3541962;40;20030;-63
2021/04/27 06:16:04;;;;;;;11.77;3.58;;;;;;;6.86;40.03;98248.69;3541060;40;20122;-62
2021/04/27 06:18:31;;;;;;;6.65;2.55;;;;;;;6.99;39.84;98252.50;3544641;40;20398;-62
2021/04/27 06:20:59;;;;;;;4.88;3.13;;;;;;;7.11;39.62;98251.03;3541851;40;20061;-62
2021/04/27 06:23:26;;;;;;;4.45;2.88;;;;;;;7.19;39.33;98245.66;3532144;40;20046;-62
2021/04/27 06:25:53;;;;;;;5.15;2.78;;;;;;;7.25;39.28;98252.78;3540556;40;20046;-62
2021/04/27 06:28:20;;;;;;;7.47;2.90;;;;;;;7.36;38.97;98256.78;3540339;40;20053;-63
2021/04/27 06:30:47;;;;;;;4.40;3.03;;;;;;;7.43;38.90;98245.34;3540560;40;20031;-63
2021/04/27 06:33:14;;;;;;;6.20;3.08;;;;;;;7.57;38.82;98253.34;3540136;40;20544;-63
2021/04/27 06:35:43;;;;;;;4.18;2.63;;;;;;;7.61;38.39;98244.09;3540343;40;20137;-63
2021/04/27 06:38:16;;;;;;;4.78;2.60;;;;;;;7.61;38.26;98250.16;3540262;40;20053;-62
2021/04/27 06:40:44;;;;;;;4.00;2.42;;;;;;;7.53;38.25;98249.47;3540297;40;20050;-62
2021/04/27 06:43:10;;;;;;;6.80;2.47;;;;;;;7.53;38.40;98252.91;3540290;40;20062;-62
2021/04/27 06:45:38;;;;;;;6.57;2.78;;;;;;;7.64;38.25;98248.97;3539970;40;20042;-62
2021/04/27 06:48:05;;;;;;;6.60;2.60;;;;;;;7.71;38.05;98257.72;3540045;40;20050;-61
2021/04/27 06:50:33;;;;;;;7.50;2.58;;;;;;;7.81;37.59;98252.19;3540063;40;20079;-62
2021/04/27 06:53:01;;;;;;;5.32;2.50;;;;;;;7.74;37.44;98254.72;3540158;40;20062;-63
2021/04/27 06:55:28;;;;;;;4.18;3.33;;;;;;;7.68;37.63;98248.41;3540274;40;20042;-63
2021/04/27 06:58:01;;;;;;;4.28;2.47;;;;;;;7.70;37.87;98246.41;3540456;40;20041;-63
2021/04/27 07:00:28;;;;;;;3.90;2.20;;;;;;;7.76;37.62;98249.31;3540438;40;20086;-62
2021/04/27 07:02:55;;;;;;;9.25;3.40;;;;;;;7.72;37.73;98242.78;3540264;40;20051;-62
2021/04/27 07:05:23;;;;;;;6.97;2.95;;;;;;;7.76;37.84;98250.13;3540397;40;20058;-62
2021/04/27 07:07:50;;;;;;;6.93;2.92;;;;;;;7.76;37.67;98258.00;3539914;40;20142;-63
2021/04/27 07:10:22;;;;;;;5.85;3.08;;;;;;;7.76;37.97;98249.31;3539995;40;20050;-65
2021/04/27 07:12:49;;;;;;;13.25;3.08;;;;;;;7.79;37.89;98244.44;3540113;40;20075;-63
2021/04/27 07:15:17;;;;;;;7.82;2.90;;;;;;;7.82;37.92;98243.28;3540321;40;20030;-63
2021/04/27 07:17:44;;;;;;;2.63;2.40;;;;;;;7.87;37.72;98243.50;3530690;40;20054;-64
2021/04/27 07:20:13;;;;;;;5.80;2.83;;;;;;;8.00;37.60;98240.19;3540497;40;20058;-63
2021/04/27 07:22:40;;;;;;;10.70;3.03;;;;;;;8.09;37.30;98236.44;3540020;40;20338;-64
2021/04/27 07:25:09;;;;;;;4.32;2.50;;;;;;;8.08;37.59;98237.41;3539737;40;20079;-63
2021/04/27 07:27:39;;;;;;;4.85;2.80;;;;;;;8.12;37.52;98236.03;3539667;40;20054;-63
2021/04/27 07:30:07;;;;;;;4.78;2.58;;;;;;;8.12;37.58;98233.41;3540216;40;20038;-63
2021/04/27 07:32:34;;;;;;;4.65;2.83;;;;;;;8.19;37.57;98234.28;3539696;40;20134;-63
2021/04/27 07:35:02;;;;;;;12.80;3.47;;;;;;;8.42;37.37;98234.06;3539822;40;20129;-63
2021/04/27 07:37:28;;;;;;;4.38;2.72;;;;;;;8.58;36.58;98230.31;3539661;40;20055;-63
2021/04/27 07:39:55;;;;;;;8.85;2.90;;;;;;;8.59;36.72;98231.94;3540070;40;20056;-63
2021/04/27 07:42:22;;;;;;;6.22;2.75;;;;;;;8.74;37.18;98226.56;3539746;40;20031;-62
2021/04/27 07:44:50;;;;;;;4.65;2.58;;;;;;;8.89;36.45;98227.22;3530371;40;20039;-62
2021/04/27 07:47:17;;;;;;;8.45;3.70;;;;;;;9.09;36.16;98222.03;3539651;40;20094;-62
2021/04/27 07:49:44;;;;;;;6.45;3.63;;;;;;;9.23;35.58;98218.47;3530796;40;20033;-62
2021/04/27 07:52:11;;;;;;;7.35;3.20;;;;;;;9.39;35.10;98217.28;3539854;40;20070;-64
2021/04/27 07:54:38;;;;;;;5.00;3.03;;;;;;;9.52;34.92;98216.50;3539751;40;20486;-63
2021/04/27 07:57:06;;;;;;;5.05;2.92;;;;;;;9.58;34.59;98213.88;3539548;40;20379;-63
2021/04/27 07:59:32;;;;;;;6.70;3.60;;;;;;;9.74;34.14;98220.59;3539420;40;20388;-62
2021/04/27 08:02:00;;;;;;;4.40;3.40;;;;;;;9.84;34.01;98213.09;3530909;40;20336;-63
2021/04/27 08:04:27;;;;;;;4.05;2.92;;;;;;;9.90;33.80;98220.19;3539579;40;20059;-62
2021/04/27 08:06:54;;;;;;;10.00;3.30;;;;;;;9.87;34.03;98212.69;3573638;23;20050;-66
2021/04/27 08:09:21;;;;;;;9.93;3.42;;;;;;;9.97;33.93;98207.00;3539236;40;20090;-66
2021/04/27 08:11:48;;;;;;;10.90;3.78;;;;;;;10.08;33.91;98208.22;3529827;40;20046;-66
2021/04/27 08:14:15;;;;;;;5.78;2.75;;;;;;;10.19;33.63;98207.59;3539121;40;20062;-66
2021/04/27 08:16:42;;;;;;;8.35;3.35;;;;;;;10.22;33.72;98209.84;3524824;40;20421;-66
2021/04/27 08:19:10;;;;;;;4.75;3.15;;;;;;;10.31;33.92;98207.84;3529411;40;20237;-65
2021/04/27 08:21:37;;;;;;;6.55;2.95;;;;;;;10.46;33.27;98200.50;3529551;40;20490;-65
2021/04/27 08:24:06;;;;;;;8.63;3.40;;;;;;;10.35;33.35;98209.03;3530902;40;20070;-65
2021/04/27 08:26:52;;;;;;;4.45;3.08;;;;;;;10.36;33.13;98200.91;3521451;40;20051;-66
2021/04/27 08:29:19;;;;;;;7.35;3.45;;;;;;;10.39;33.00;98207.63;3522042;40;20079;-68
2021/04/27 08:31:56;;;;;;;6.75;3.00;;;;;;;10.33;33.35;98195.25;3522691;40;20039;-67
2021/04/27 08:34:25;;;;;;;11.70;4.35;;;;;;;10.48;33.18;98195.81;3531636;40;20166;-65
2021/04/27 08:36:52;;;;;;;7.38;4.07;;;;;;;10.64;32.98;98186.63;3530523;40;20043;-65
2021/04/27 08:39:19;;;;;;;5.72;3.63;;;;;;;10.74;33.15;98187.00;3521291;40;20063;-65
2021/04/27 08:41:46;;;;;;;3.90;3.17;;;;;;;10.70;32.46;98185.81;3521721;40;20050;-67
2021/04/27 08:44:13;;;;;;;9.15;3.70;;;;;;;10.84;32.51;98187.38;3531609;40;20055;-66
2021/04/27 08:46:40;;;;;;;5.70;3.80;;;;;;;10.82;32.65;98178.84;3531336;40;20316;-67
2021/04/27 08:49:08;;;;;;;6.70;3.13;;;;;;;10.76;32.56;98184.16;3531504;40;20341;-66
2021/04/27 08:51:36;;;;;;;5.03;3.58;;;;;;;10.88;32.65;98185.13;3531584;40;20079;-66
2021/04/27 08:54:15;;;;;;;7.18;3.35;;;;;;;11.16;32.39;98184.81;3530131;40;20141;-66
2021/04/27 08:56:42;;;;;;;5.30;3.13;;;;;;;11.27;32.33;98178.84;3531237;40;20419;-65
2021/04/27 08:59:09;;;;;;;7.97;3.42;;;;;;;11.36;31.82;98182.84;3530861;40;20059;-67
2021/04/27 09:01:36;;;;;;;5.05;3.50;;;;;;;11.24;32.01;98181.91;3521952;40;20043;-65
2021/04/27 09:04:03;;;;;;;3.55;2.60;;;;;;;11.23;32.00;98179.47;3531011;40;20062;-65
2021/04/27 09:06:30;;;;;;;4.53;3.08;;;;;;;11.30;31.85;98177.59;3521136;40;20039;-65
2021/04/27 09:08:58;;;;;;;5.43;3.17;;;;;;;11.43;31.78;98168.75;3529614;40;20230;-65
2021/04/27 09:11:33;;;;;;;8.13;3.67;;;;;;;11.61;31.73;98174.16;3530193;40;20223;-65
2021/04/27 09:14:15;;;;;;;5.00;3.28;;;;;;;11.75;31.33;98165.06;3530568;40;20032;-66
2021/04/27 09:16:49;;;;;;;5.10;3.22;;;;;;;11.79;31.01;98160.97;3530390;40;20031;-66
2021/04/27 09:19:33;;;;;;;6.90;3.22;;;;;;;11.86;30.79;98161.75;3530582;40;20032;-67
2021/04/27 09:22:03;;;;;;;5.53;3.42;;;;;;;11.90;30.97;98160.31;3530332;40;20305;-67
2021/04/27 09:24:33;;;;;;;7.28;4.00;;;;;;;12.03;30.80;98161.22;3530393;40;20420;-67
2021/04/27 09:27:00;;;;;;;5.57;3.40;;;;;;;12.15;30.81;98157.63;3530158;40;20385;-66
2021/04/27 09:29:29;;;;;;;4.60;2.90;;;;;;;12.21;31.01;98152.50;3521204;40;20047;-67
2021/04/27 09:31:56;;;;;;;5.13;3.33;;;;;;;12.29;30.49;98153.03;3530233;40;20047;-66
2021/04/27 09:34:25;;;;;;;6.43;3.53;;;;;;;12.38;30.52;98150.91;3530462;40;20034;-66
2021/04/27 09:36:53;;;;;;;4.95;3.50;;;;;;;12.44;30.32;98144.72;3530350;40;20403;-66
2021/04/27 09:39:22;;;;;;;4.25;3.17;;;;;;;12.35;30.49;98151.34;3530700;40;20057;-67
2021/04/27 09:42:01;;;;;;;6.47;3.65;;;;;;;12.49;30.71;98144.88;3521523;40;20048;-66
2021/04/27 09:44:33;;;;;;;6.40;3.78;;;;;;;12.71;30.25;98134.63;3521350;40;20111;-65
2021/04/27 09:47:08;;;;;;;8.55;3.72;;;;;;;12.84;30.13;98133.66;3530668;40;20066;-66
2021/04/27 09:49:35;;;;;;;7.22;5.55;;;;;;;12.78;30.33;98138.00;3522345;40;20051;-65
2021/04/27 09:52:07;;;;;;;12.82;8.38;;;;;;;12.82;29.68;98128.56;3532020;40;20349;-67
2021/04/27 09:54:35;;;;;;;5.40;3.92;;;;;;;12.84;29.70;98128.34;3531018;40;20058;-66
2021/04/27 09:57:02;;;;;;;7.85;4.18;;;;;;;12.91;30.03;98126.44;3521133;40;20087;-66
2021/04/27 09:59:31;;;;;;;6.50;3.80;;;;;;;12.86;29.48;98123.66;3530779;40;20061;-67
2021/04/27 10:02:00;;;;;;;7.30;3.83;;;;;;;12.80;30.04;98111.25;3531272;40;20393;-68
2021/04/27 10:04:28;;;;;;;8.52;3.80;;;;;;;13.07;29.16;98115.19;3533439;40;20058;-67
2021/04/27 10:07:01;;;;;;;7.55;4.13;;;;;;;13.07;29.25;98109.88;3532892;40;20047;-66
2021/04/27 10:09:29;;;;;;;4.40;4.00;;;;;;;13.18;28.83;98107.47;3533294;40;20412;-66
2021/04/27 10:11:57;;;;;;;5.07;4.22;;;;;;;13.22;28.83;98103.34;3532817;40;20043;-66
2021/04/27 10:14:25;;;;;;;5.47;3.67;;;;;;;12.96;29.28;98105.34;3533216;40;20067;-67
2021/04/27 10:16:52;;;;;;;5.57;4.35;;;;;;;13.12;29.37;98096.75;3533052;40;20047;-65
2021/04/27 10:19:19;;;;;;;7.05;3.53;;;;;;;13.15;29.46;98092.84;3533424;40;20043;-66
2021/04/27 10:21:48;;;;;;;6.68;4.10;;;;;;;13.34;29.35;98086.44;3533633;40;20078;-66
2021/04/27 10:24:17;;;;;;;5.40;3.80;;;;;;;13.31;28.89;98092.22;3531998;40;20051;-65
2021/04/27 10:26:46;;;;;;;7.45;4.50;;;;;;;13.22;29.03;98084.75;3523883;40;20110;-69
2021/04/27 10:29:18;;;;;;;8.68;4.20;;;;;;;13.31;29.40;98078.16;3532757;40;20059;-66
2021/04/27 10:31:48;;;;;;;11.60;4.30;;;;;;;13.46;29.22;98072.38;3532871;40;20137;-67
2021/04/27 10:34:17;;;;;;;4.57;3.67;;;;;;;13.56;29.20;98062.00;3532580;40;20086;-67
2021/04/27 10:37:06;;;;;;;6.60;4.22;;;;;;;13.70;28.59;98060.75;3524348;40;20110;-67
2021/04/27 10:39:39;;;;;;;10.65;4.90;;;;;;;13.85;29.09;98060.28;3524511;40;20051;-67
2021/04/27 10:42:17;;;;;;;8.40;3.50;;;;;;;14.06;28.40;98056.22;3533406;40;20063;-67
2021/04/27 10:44:52;;;;;;;9.52;4.18;;;;;;;14.18;28.37;98054.38;3532005;40;20047;-67
2021/04/27 10:47:21;;;;;;;7.05;3.72;;;;;;;14.13;28.10;98049.75;3521677;40;20063;-66
2021/04/27 10:49:48;;;;;;;6.68;4.78;;;;;;;14.36;27.22;98054.19;3533737;40;20053;-65
2021/04/27 10:52:32;;;;;;;8.43;4.30;;;;;;;14.36;26.80;98054.19;3532923;40;20083;-67
2021/04/27 10:55:27;;;;;;;6.50;3.95;;;;;;;14.48;26.91;98045.38;3533449;40;20054;-65
2021/04/27 10:57:56;;;;;;;6.57;4.43;;;;;;;14.60;26.49;98035.56;3532500;40;20051;-66
2021/04/27 11:00:38;;;;;;;5.68;4.68;;;;;;;14.72;26.62;98035.50;3532785;40;20043;-66
2021/04/27 11:03:18;;;;;;;5.47;4.20;;;;;;;14.75;26.41;98037.69;3523807;40;20031;-67
2021/04/27 11:06:07;;;;;;;9.35;4.50;;;;;;;14.79;25.48;98031.66;3532403;40;20058;-68
2021/04/27 11:08:45;;;;;;;5.70;4.10;;;;;;;14.74;26.13;98025.44;3532126;40;20397;-66
2021/04/27 11:11:17;;;;;;;6.07;4.50;;;;;;;14.79;25.92;98026.34;3532409;40;20051;-66
2021/04/27 11:13:44;;;;;;;4.72;4.10;;;;;;;14.75;25.84;98014.56;3532516;40;20051;-66
2021/04/27 11:16:26;;;;;;;6.57;4.10;;;;;;;14.84;26.17;98014.97;3532322;40;20083;-66
2021/04/27 11:19:12;;;;;;;6.93;4.38;;;;;;;15.08;25.24;98013.81;3522419;40;20054;-66
2021/04/27 11:21:40;;;;;;;6.10;4.20;;;;;;;14.92;25.54;98006.59;3532759;40;20051;-67
2021/04/27 11:24:08;;;;;;;6.93;4.93;;;;;;;14.91;25.61;98015.66;3535872;40;20059;-67
2021/04/27 11:26:54;;;;;;;8.02;4.40;;;;;;;14.93;25.25;98010.88;3527910;40;20062;-68
2021/04/27 11:29:26;;;;;;;6.60;4.15;;;;;;;15.13;25.13;98004.28;3537268;40;20193;-67
2021/04/27 11:32:12;;;;;;;6.13;4.80;;;;;;;15.32;24.93;98000.34;3536903;40;20051;-68
2021/04/27 11:34:52;;;;;;;4.97;4.30;;;;;;;15.36;24.93;97996.16;3528490;40;20049;-68
2021/04/27 11:37:22;;;;;;;6.07;4.18;;;;;;;15.47;24.58;98000.59;3528874;40;20047;-68
2021/04/27 11:39:49;;;;;;;7.85;4.63;;;;;;;15.55;24.23;98002.84;3536669;40;20055;-68
2021/04/27 11:42:24;;;;;;;7.65;4.57;;;;;;;15.35;24.56;97992.69;3536016;40;20051;-68
2021/04/27 11:44:59;;;;;;;10.65;4.75;;;;;;;15.40;24.97;97991.97;3532440;40;20094;-67
2021/04/27 11:47:33;;;;;;;8.35;4.97;;;;;;;15.62;24.38;97994.66;3532313;40;20078;-68
2021/04/27 11:50:03;;;;;;;8.20;4.57;;;;;;;15.62;24.71;97989.34;3532856;40;20075;-67
2021/04/27 11:53:03;;;;;;;7.03;4.57;;;;;;;15.71;24.26;97987.88;3532786;40;20104;-65
2021/04/27 11:55:36;;;;;;;6.40;4.53;;;;;;;15.64;24.36;97989.09;3533314;40;20031;-66
2021/04/27 11:58:06;;;;;;;8.82;4.68;;;;;;;15.63;24.46;97980.28;3532397;40;20055;-66